GQQ weather

Galion Municipal Airport
Galion, Ohio, United States

Public forecast

Using degrees Fahrenheit for public forecast. Weather courtesy of forecast.io.

METAR (pilot weather report)

Closest report is Mansfield Lahm Regional Airport, 10.3 nm (19.0 km) ENE. Retrieved 2019/05/24 09:52 UTC (26 minutes ago):

KMFD 240952Z 00000KT 10SM CLR 12/10 A3012 RMK AO2 SLP195 T01170100

TAF (pilot weather forecast)

Closest forecast is Mansfield Lahm Regional Airport, 10.3 nm (19.0 km) ENE. Retrieved 2019/05/24 06:39 UTC (4 hours ago):

TAF KMFD 240536Z 2406/2506 31004KT P6SM SKC FM241800 29004KT P6SM BKN200 FM250000 12005KT P6SM SCT060